Time;durP1;ratioP1;P1;durP2;ratioP2;P2;SDS_P1;SDS_P2;PMS_P1;PMS_P2;Temp;Humidity;BMP_temperature;BMP_pressure;BME280_temperature;BME280_humidity;BME280_pressure;Samples;Min_cycle;Max_cycle;Signal;HPM_P1;HPM_P2
2021/09/27 00:00:43;;;;;;;6.85;4.60;;;17.60;89.70;;;;;;2056735;28;20137;-91
2021/09/27 00:01:44;;;;;;;6.15;4.53;;;17.60;89.70;;;;;;2058070;28;20461;-91
2021/09/27 00:02:45;;;;;;;6.00;4.55;;;17.60;89.70;;;;;;2068329;28;20223;-91
2021/09/27 00:03:46;;;;;;;5.25;4.38;;;17.50;89.70;;;;;;2073990;28;20038;-91
2021/09/27 00:04:46;;;;;;;5.65;4.72;;;17.50;89.70;;;;;;2064106;28;20093;-91
2021/09/27 00:05:47;;;;;;;5.60;4.35;;;17.50;89.70;;;;;;2060641;28;20505;-91
2021/09/27 00:06:48;;;;;;;6.18;4.78;;;17.50;89.70;;;;;;2065655;28;20046;-90
2021/09/27 00:07:49;;;;;;;6.65;5.20;;;17.50;89.70;;;;;;2066475;28;20073;-91
2021/09/27 00:08:50;;;;;;;6.00;4.72;;;17.50;89.70;;;;;;2062334;28;20043;-91
2021/09/27 00:09:50;;;;;;;6.82;5.10;;;17.50;89.70;;;;;;2056854;28;20046;-91
2021/09/27 00:10:59;;;;;;;6.90;5.00;;;17.50;89.70;;;;;;2054201;28;20043;-90
2021/09/27 00:12:01;;;;;;;5.55;4.43;;;17.50;89.70;;;;;;2054123;28;20161;-91
2021/09/27 00:13:02;;;;;;;5.63;4.68;;;17.50;89.70;;;;;;2074022;28;20404;-91
2021/09/27 00:14:04;;;;;;;7.15;4.90;;;17.50;89.80;;;;;;2068809;28;20035;-91
2021/09/27 00:15:11;;;;;;;7.22;5.10;;;17.50;89.80;;;;;;2063911;28;20046;-91
2021/09/27 00:16:12;;;;;;;5.60;4.53;;;17.50;89.80;;;;;;2069105;28;20030;-91
2021/09/27 00:17:13;;;;;;;6.22;4.55;;;17.50;89.80;;;;;;2065441;28;20245;-91
2021/09/27 00:18:16;;;;;;;5.60;4.47;;;17.50;89.80;;;;;;2065156;28;20190;-91
2021/09/27 00:19:17;;;;;;;5.88;4.63;;;17.50;89.80;;;;;;2067092;28;20035;-91
2021/09/27 00:20:18;;;;;;;6.55;5.30;;;17.40;89.70;;;;;;2076874;28;20172;-91
2021/09/27 00:21:28;;;;;;;5.90;4.90;;;17.40;89.70;;;;;;2075856;28;20053;-91
2021/09/27 00:22:29;;;;;;;6.13;4.88;;;17.40;89.80;;;;;;2066566;28;20041;-90
2021/09/27 00:23:32;;;;;;;5.97;4.68;;;17.40;89.80;;;;;;2065136;28;20129;-91
2021/09/27 00:24:33;;;;;;;6.03;4.40;;;17.40;89.80;;;;;;2065302;28;20038;-91
2021/09/27 00:25:34;;;;;;;6.00;4.88;;;17.40;89.80;;;;;;2074473;28;20204;-91
2021/09/27 00:26:35;;;;;;;6.20;4.90;;;17.40;89.90;;;;;;2063134;28;20035;-90
2021/09/27 00:27:36;;;;;;;7.22;4.75;;;17.40;89.80;;;;;;2057423;28;20089;-91
2021/09/27 00:28:36;;;;;;;6.57;5.10;;;17.40;89.80;;;;;;2065718;28;20440;-90
2021/09/27 00:29:37;;;;;;;6.40;4.80;;;17.40;89.80;;;;;;2064409;28;20421;-91
2021/09/27 00:30:39;;;;;;;6.00;4.65;;;17.40;89.80;;;;;;2056897;28;20068;-91
2021/09/27 00:31:40;;;;;;;6.35;4.80;;;17.40;89.80;;;;;;2058055;28;20584;-91
2021/09/27 00:32:41;;;;;;;5.25;4.20;;;17.40;89.80;;;;;;2064102;28;20038;-91
2021/09/27 00:33:43;;;;;;;6.50;4.63;;;17.40;89.80;;;;;;2058055;28;20034;-91
2021/09/27 00:34:44;;;;;;;5.60;4.43;;;17.40;89.80;;;;;;2056992;28;20065;-90
2021/09/27 00:35:45;;;;;;;6.05;4.65;;;17.40;89.70;;;;;;2049087;28;20071;-91
2021/09/27 00:36:46;;;;;;;5.80;4.60;;;17.40;89.80;;;;;;2043061;28;20035;-91
2021/09/27 00:37:46;;;;;;;6.40;4.82;;;17.40;89.80;;;;;;2057962;28;20117;-91
2021/09/27 00:38:47;;;;;;;6.55;4.57;;;17.40;89.80;;;;;;2049439;28;20051;-91
2021/09/27 00:39:48;;;;;;;6.18;4.60;;;17.40;89.80;;;;;;2040881;28;20039;-91
2021/09/27 00:40:53;;;;;;;7.18;4.55;;;17.40;89.80;;;;;;2044930;29;20067;-91
2021/09/27 00:41:53;;;;;;;5.80;4.35;;;17.40;89.80;;;;;;2059160;28;20547;-90
2021/09/27 00:42:54;;;;;;;5.43;4.50;;;17.40;89.80;;;;;;2057231;28;20031;-91
2021/09/27 00:43:55;;;;;;;6.03;4.65;;;17.40;89.80;;;;;;2057926;28;20039;-91
2021/09/27 00:44:56;;;;;;;5.85;4.45;;;17.30;90.10;;;;;;2057610;28;20437;-91
2021/09/27 00:46:00;;;;;;;6.20;4.50;;;17.30;89.80;;;;;;2049343;28;20039;-91
2021/09/27 00:47:01;;;;;;;5.68;4.60;;;17.30;89.80;;;;;;2056702;28;20816;-91
2021/09/27 00:48:02;;;;;;;6.03;4.53;;;17.30;89.80;;;;;;2050929;28;20054;-90
2021/09/27 00:49:03;;;;;;;6.97;4.70;;;17.30;89.90;;;;;;2056630;28;20042;-90
2021/09/27 00:50:07;;;;;;;6.10;4.90;;;17.30;89.90;;;;;;2059171;28;20726;-91
2021/09/27 00:51:14;;;;;;;5.60;4.57;;;17.30;89.90;;;;;;2066976;28;20035;-91
2021/09/27 00:52:16;;;;;;;6.22;4.35;;;17.30;89.90;;;;;;2079082;28;20018;-87
2021/09/27 00:53:42;;;;;;;7.63;4.75;;;17.30;89.90;;;;;;2083721;28;20037;-89
2021/09/27 00:54:45;;;;;;;5.75;4.53;;;17.30;90.20;;;;;;2072299;28;20049;-90
2021/09/27 00:55:46;;;;;;;6.45;4.78;;;17.20;89.90;;;;;;2065804;28;20520;-91
2021/09/27 00:56:51;;;;;;;6.35;4.45;;;17.20;89.90;;;;;;2052107;28;20266;-91
2021/09/27 00:57:54;;;;;;;5.68;4.45;;;17.20;90.00;;;;;;2063729;28;20038;-91
2021/09/27 00:58:57;;;;;;;6.40;4.45;;;17.20;90.00;;;;;;2065367;28;20038;-90
2021/09/27 00:59:58;;;;;;;5.70;4.60;;;17.20;90.00;;;;;;2057758;28;20463;-91
2021/09/27 01:00:59;;;;;;;5.82;4.72;;;17.20;90.00;;;;;;2056847;28;20528;-90
2021/09/27 01:02:01;;;;;;;5.80;4.18;;;17.20;90.00;;;;;;2057642;28;20074;-91
2021/09/27 01:03:02;;;;;;;6.43;4.78;;;17.20;90.00;;;;;;2064884;28;20069;-91
2021/09/27 01:04:04;;;;;;;5.65;4.45;;;17.20;90.00;;;;;;2067169;28;20042;-91
2021/09/27 01:05:08;;;;;;;5.88;4.60;;;17.10;90.00;;;;;;2070424;28;20481;-91
2021/09/27 01:06:44;;;;;;;6.22;4.38;;;17.10;90.00;;;;;;2074217;28;20672;-91
2021/09/27 01:08:21;;;;;;;5.53;4.40;;;17.10;90.00;;;;;;2073140;28;20042;-91
2021/09/27 01:09:38;;;;;;;5.93;4.07;;;17.10;90.00;;;;;;2052086;28;20473;-91
2021/09/27 01:10:58;;;;;;;5.70;4.05;;;17.10;90.00;;;;;;2065894;28;20038;-91
2021/09/27 01:12:30;;;;;;;5.95;3.92;;;17.10;90.00;;;;;;2059054;28;20039;-91
2021/09/27 01:13:48;;;;;;;5.22;4.15;;;17.10;90.00;;;;;;2061167;28;20032;-91
2021/09/27 01:15:16;;;;;;;5.70;4.10;;;17.10;90.00;;;;;;2060518;28;20087;-91
2021/09/27 01:16:50;;;;;;;5.90;4.07;;;17.10;90.00;;;;;;2061440;28;20353;-91
2021/09/27 01:18:02;;;;;;;6.57;4.57;;;17.00;89.90;;;;;;2065326;28;20145;-91
2021/09/27 01:19:26;;;;;;;6.22;4.18;;;17.00;89.90;;;;;;2058431;28;20041;-91
2021/09/27 01:20:38;;;;;;;5.32;4.28;;;17.00;90.00;;;;;;2063245;28;20034;-91
2021/09/27 01:22:25;;;;;;;5.80;4.05;;;17.00;90.00;;;;;;2071553;28;20091;-91
2021/09/27 01:24:03;;;;;;;5.38;4.20;;;17.00;89.90;;;;;;2073471;28;20125;-91
2021/09/27 01:25:22;;;;;;;5.10;3.80;;;17.00;89.90;;;;;;2064824;28;20501;-91
2021/09/27 01:26:44;;;;;;;5.50;3.95;;;17.00;89.90;;;;;;2051258;28;20137;-91
2021/09/27 01:28:10;;;;;;;6.03;3.90;;;17.00;90.00;;;;;;2058372;28;20041;-91
2021/09/27 01:29:38;;;;;;;6.38;4.30;;;17.00;90.00;;;;;;2056799;28;20493;-92
2021/09/27 01:31:06;;;;;;;5.80;4.40;;;16.90;90.00;;;;;;2049294;28;20205;-91
2021/09/27 01:32:37;;;;;;;6.60;3.90;;;16.90;90.00;;;;;;2050820;28;20048;-91
2021/09/27 01:33:50;;;;;;;6.80;4.53;;;16.90;90.00;;;;;;2062909;28;20148;-91
2021/09/27 01:35:18;;;;;;;5.72;4.22;;;16.90;90.00;;;;;;2065564;28;20030;-91
2021/09/27 01:36:42;;;;;;;5.65;4.30;;;16.80;90.00;;;;;;2057102;28;20034;-91
2021/09/27 01:38:21;;;;;;;5.50;4.28;;;16.80;90.00;;;;;;2058871;28;20571;-91
2021/09/27 01:39:36;;;;;;;5.97;4.20;;;16.80;90.00;;;;;;2059714;28;20126;-92
2021/09/27 01:40:42;;;;;;;5.40;4.25;;;16.80;90.00;;;;;;2064674;28;20042;-91
2021/09/27 01:41:54;;;;;;;5.47;4.10;;;16.80;90.10;;;;;;2064829;28;20043;-91
2021/09/27 01:43:15;;;;;;;6.15;4.30;;;16.80;90.00;;;;;;2065634;28;20411;-91
2021/09/27 01:44:34;;;;;;;5.85;4.28;;;16.80;90.10;;;;;;2057033;28;20066;-91
2021/09/27 01:45:59;;;;;;;6.22;4.60;;;16.80;90.10;;;;;;2058850;28;20134;-91
2021/09/27 01:47:02;;;;;;;5.47;4.07;;;16.80;90.10;;;;;;2063662;28;20038;-91
2021/09/27 01:48:03;;;;;;;5.97;4.32;;;16.80;90.10;;;;;;2064192;28;20042;-91
2021/09/27 01:49:07;;;;;;;5.47;4.10;;;16.80;90.10;;;;;;2073432;28;20121;-91
2021/09/27 01:50:07;;;;;;;6.07;4.70;;;16.80;90.20;;;;;;2061892;28;20054;-91
2021/09/27 01:51:24;;;;;;;6.47;4.63;;;16.70;90.20;;;;;;2062126;28;20055;-91
2021/09/27 01:52:33;;;;;;;6.32;4.40;;;16.80;90.20;;;;;;2069612;28;20048;-91
2021/09/27 01:54:14;;;;;;;5.90;4.70;;;16.80;90.20;;;;;;2058383;28;20110;-91
2021/09/27 01:55:25;;;;;;;7.32;4.53;;;16.80;90.30;;;;;;2053788;28;20042;-91
2021/09/27 01:56:42;;;;;;;6.00;4.45;;;16.70;90.20;;;;;;2049276;28;20024;-90
2021/09/27 01:58:08;;;;;;;6.03;4.55;;;16.80;90.20;;;;;;2058513;28;20046;-91
2021/09/27 01:59:23;;;;;;;6.13;4.28;;;16.70;90.20;;;;;;2060986;28;20052;-90
2021/09/27 02:00:32;;;;;;;6.00;4.40;;;16.80;90.20;;;;;;2060661;28;20049;-90
2021/09/27 02:02:00;;;;;;;6.45;4.57;;;16.70;90.20;;;;;;2062910;28;20372;-91
2021/09/27 02:03:19;;;;;;;6.10;4.72;;;16.70;90.30;;;;;;2062515;28;20153;-91
2021/09/27 02:04:35;;;;;;;6.28;4.72;;;16.70;90.30;;;;;;2058284;28;20035;-91
2021/09/27 02:06:00;;;;;;;6.22;5.07;;;16.70;90.30;;;;;;2064731;28;20031;-91
2021/09/27 02:07:02;;;;;;;6.32;4.78;;;16.70;90.50;;;;;;2065229;28;20413;-91
2021/09/27 02:08:17;;;;;;;6.80;4.68;;;16.70;90.30;;;;;;2064188;28;20023;-91
2021/09/27 02:09:34;;;;;;;6.13;4.50;;;16.70;90.30;;;;;;2064182;28;20169;-91
2021/09/27 02:10:49;;;;;;;6.40;4.55;;;16.70;90.30;;;;;;2061765;28;20046;-91
2021/09/27 02:12:03;;;;;;;6.97;4.55;;;16.70;90.30;;;;;;2065177;28;20035;-91
2021/09/27 02:13:25;;;;;;;7.22;5.10;;;16.70;90.30;;;;;;2065584;28;20042;-91
2021/09/27 02:14:29;;;;;;;6.03;4.55;;;16.70;90.40;;;;;;2064783;28;20085;-91
2021/09/27 02:15:43;;;;;;;6.60;4.80;;;16.70;90.30;;;;;;2064871;28;20042;-90
2021/09/27 02:16:56;;;;;;;6.43;4.85;;;16.70;90.30;;;;;;2064274;28;20397;-91
2021/09/27 02:18:12;;;;;;;5.85;4.50;;;16.70;90.30;;;;;;2070522;28;20030;-91
2021/09/27 02:19:22;;;;;;;6.80;4.80;;;16.60;90.40;;;;;;2058298;28;20034;-91
2021/09/27 02:20:37;;;;;;;6.20;4.60;;;16.60;90.40;;;;;;2046170;28;20031;-91
2021/09/27 02:21:42;;;;;;;6.93;4.75;;;16.60;90.40;;;;;;2055848;28;20385;-91
2021/09/27 02:22:54;;;;;;;5.80;4.60;;;16.60;90.40;;;;;;2062727;28;20042;-92
2021/09/27 02:24:18;;;;;;;7.65;4.70;;;16.60;90.40;;;;;;2055976;28;20030;-91
2021/09/27 02:25:26;;;;;;;6.18;4.88;;;16.60;90.30;;;;;;2058933;28;20051;-91
2021/09/27 02:26:27;;;;;;;6.43;4.38;;;16.60;90.30;;;;;;2056711;28;20039;-91
2021/09/27 02:27:28;;;;;;;6.57;4.93;;;16.60;90.40;;;;;;2039869;29;20040;-91
2021/09/27 02:28:29;;;;;;;6.13;4.60;;;16.60;90.40;;;;;;2039356;29;20495;-91
2021/09/27 02:29:31;;;;;;;6.43;4.40;;;16.60;90.40;;;;;;2048959;29;20039;-91
2021/09/27 02:31:12;;;;;;;6.47;4.78;;;16.60;90.40;;;;;;2054107;28;20447;-91
2021/09/27 02:32:33;;;;;;;;;;;16.60;90.40;;;;;;2053808;28;20058;-92
2021/09/27 02:33:37;;;;;;;;;;;16.60;90.40;;;;;;2054393;28;19921;-92
2021/09/27 02:34:46;;;;;;;5.03;3.85;;;16.60;90.40;;;;;;2058015;28;19916;-91
2021/09/27 02:36:04;;;;;;;5.53;4.25;;;16.60;90.30;;;;;;2067652;28;20074;-91
2021/09/27 02:37:13;;;;;;;5.20;3.90;;;16.60;90.40;;;;;;2054821;28;20027;-91
2021/09/27 02:38:34;;;;;;;6.28;4.40;;;16.60;90.40;;;;;;2057018;28;20473;-91
2021/09/27 02:39:59;;;;;;;5.82;4.18;;;16.60;90.40;;;;;;2061082;28;20074;-91
2021/09/27 02:41:15;;;;;;;6.18;4.40;;;16.60;90.30;;;;;;2064366;28;20048;-91
2021/09/27 02:42:28;;;;;;;5.65;4.30;;;16.60;90.30;;;;;;2062364;28;20085;-91
2021/09/27 02:43:29;;;;;;;5.35;4.20;;;16.50;90.30;;;;;;2063317;28;20492;-91
2021/09/27 02:44:30;;;;;;;5.72;4.40;;;16.50;90.40;;;;;;2064843;28;20125;-91
2021/09/27 02:45:31;;;;;;;5.95;4.80;;;16.50;90.70;;;;;;2064753;28;20038;-91
2021/09/27 02:46:32;;;;;;;6.18;4.72;;;16.50;90.50;;;;;;2053904;28;20031;-91
2021/09/27 02:47:53;;;;;;;6.35;4.88;;;16.50;90.50;;;;;;2062244;28;20031;-91
2021/09/27 02:48:58;;;;;;;6.00;4.70;;;16.50;90.50;;;;;;2061181;28;20412;-91
2021/09/27 02:50:00;;;;;;;5.85;4.55;;;16.50;90.50;;;;;;2062555;28;20039;-91
2021/09/27 02:51:02;;;;;;;5.80;4.60;;;16.50;90.50;;;;;;2048607;28;20577;-91
2021/09/27 02:52:03;;;;;;;5.75;4.47;;;16.50;90.50;;;;;;2048467;28;20386;-91
2021/09/27 02:53:04;;;;;;;6.40;5.03;;;16.50;90.50;;;;;;2060619;28;20042;-91
2021/09/27 02:54:07;;;;;;;6.63;4.72;;;16.50;90.50;;;;;;2061442;28;20334;-91
2021/09/27 02:55:15;;;;;;;6.53;4.97;;;16.50;90.60;;;;;;2056441;28;20031;-91
2021/09/27 02:56:30;;;;;;;6.60;4.82;;;16.50;90.60;;;;;;2054606;28;20071;-91
2021/09/27 02:57:53;;;;;;;5.75;4.68;;;16.50;90.60;;;;;;2062621;28;20062;-91
2021/09/27 02:59:15;;;;;;;6.43;4.53;;;16.50;90.50;;;;;;2066365;28;20070;-91
2021/09/27 03:00:23;;;;;;;6.40;4.38;;;16.50;90.60;;;;;;2065054;28;20089;-91
2021/09/27 03:01:49;;;;;;;5.75;4.57;;;16.50;90.60;;;;;;2063978;28;20158;-91
2021/09/27 03:03:17;;;;;;;6.05;4.45;;;16.50;90.50;;;;;;2065405;28;20030;-91
2021/09/27 03:04:32;;;;;;;5.50;4.40;;;16.50;90.50;;;;;;2057064;28;20031;-91
2021/09/27 03:05:59;;;;;;;6.72;4.63;;;16.50;90.60;;;;;;2051920;28;20059;-91
2021/09/27 03:07:09;;;;;;;5.63;4.40;;;16.50;90.50;;;;;;2064607;28;20048;-92
2021/09/27 03:08:23;;;;;;;6.22;4.90;;;16.40;90.50;;;;;;2070524;28;20034;-90
2021/09/27 03:09:44;;;;;;;5.80;4.60;;;16.50;90.60;;;;;;2063954;28;20068;-91
2021/09/27 03:11:06;;;;;;;6.72;4.85;;;16.40;90.50;;;;;;2057833;28;20404;-91
2021/09/27 03:12:15;;;;;;;5.88;4.55;;;16.40;90.60;;;;;;2062850;28;20867;-91
2021/09/27 03:13:45;;;;;;;6.53;4.55;;;16.40;90.50;;;;;;2063027;28;20385;-91
2021/09/27 03:15:14;;;;;;;5.97;4.93;;;16.40;90.60;;;;;;2065279;28;20049;-91
2021/09/27 03:16:45;;;;;;;6.13;4.30;;;16.40;90.50;;;;;;2063362;28;20038;-91
2021/09/27 03:18:16;;;;;;;5.82;4.22;;;16.40;90.50;;;;;;2059022;28;20050;-90
2021/09/27 03:19:42;;;;;;;5.68;4.25;;;16.40;90.60;;;;;;2065570;28;20431;-91
2021/09/27 03:21:14;;;;;;;5.95;4.55;;;16.40;90.50;;;;;;2059035;28;20047;-90
2021/09/27 03:22:35;;;;;;;6.32;4.50;;;16.30;90.50;;;;;;2060163;28;20043;-91
2021/09/27 03:23:57;;;;;;;5.20;3.95;;;16.30;90.50;;;;;;2064695;28;20090;-91
2021/09/27 03:25:35;;;;;;;6.00;4.35;;;16.30;90.50;;;;;;2067272;28;20051;-91
2021/09/27 03:27:11;;;;;;;5.88;4.38;;;16.30;90.50;;;;;;2071731;28;20064;-91
2021/09/27 03:28:27;;;;;;;6.47;4.20;;;16.30;90.50;;;;;;2068747;28;20038;-91
2021/09/27 03:29:59;;;;;;;5.57;4.32;;;16.30;90.50;;;;;;2070133;28;20045;-91
2021/09/27 03:31:38;;;;;;;6.82;4.57;;;16.20;90.50;;;;;;2022725;29;20254;-91
2021/09/27 03:33:02;;;;;;;5.25;4.18;;;16.20;90.50;;;;;;2036895;29;20043;-91
2021/09/27 03:34:14;;;;;;;5.90;4.38;;;16.20;90.50;;;;;;2070486;28;20214;-91
2021/09/27 03:35:32;;;;;;;6.03;4.22;;;16.20;90.60;;;;;;2064040;28;20039;-91
2021/09/27 03:36:57;;;;;;;6.72;4.65;;;16.20;90.60;;;;;;2058570;28;20041;-91
2021/09/27 03:38:28;;;;;;;5.35;4.30;;;16.20;90.60;;;;;;2065217;28;20042;-91
2021/09/27 03:39:29;;;;;;;5.72;4.18;;;16.20;90.60;;;;;;2058949;28;20038;-91
2021/09/27 03:40:59;;;;;;;5.85;4.57;;;16.20;90.60;;;;;;2054940;28;20058;-91
2021/09/27 03:42:09;;;;;;;5.90;4.18;;;16.20;90.60;;;;;;2068132;28;20411;-91
2021/09/27 03:43:32;;;;;;;6.32;4.95;;;16.20;90.70;;;;;;2071023;28;20157;-91
2021/09/27 03:44:52;;;;;;;5.53;4.38;;;16.20;90.70;;;;;;2061451;28;20117;-90
2021/09/27 03:46:02;;;;;;;6.88;4.50;;;16.10;90.70;;;;;;2066883;28;20058;-91
2021/09/27 03:47:02;;;;;;;7.40;4.57;;;16.20;90.70;;;;;;2061873;28;20042;-91
2021/09/27 03:48:44;;;;;;;7.15;4.68;;;16.10;90.70;;;;;;2067499;28;20425;-91
2021/09/27 03:49:55;;;;;;;6.30;4.60;;;16.10;90.70;;;;;;2058638;28;20476;-91
2021/09/27 03:51:07;;;;;;;;;;;16.10;90.70;;;;;;2066556;28;20034;-91
2021/09/27 03:52:24;;;;;;;5.90;4.25;;;16.10;90.70;;;;;;2065616;28;19914;-91
2021/09/27 03:53:52;;;;;;;6.00;4.47;;;16.10;90.70;;;;;;2065009;28;20037;-91
2021/09/27 03:55:11;;;;;;;5.35;4.15;;;16.10;90.80;;;;;;2073737;28;20041;-91
2021/09/27 03:56:20;;;;;;;5.72;4.07;;;16.10;90.70;;;;;;2063336;28;20046;-91
2021/09/27 03:57:36;;;;;;;5.72;4.15;;;16.10;90.70;;;;;;2055861;28;20047;-91
2021/09/27 03:58:47;;;;;;;6.35;4.70;;;16.10;90.70;;;;;;2057814;28;20591;-91
2021/09/27 03:59:58;;;;;;;6.25;4.72;;;16.10;90.70;;;;;;2065305;28;20040;-91
2021/09/27 04:01:08;;;;;;;7.32;4.72;;;16.10;90.70;;;;;;2061305;28;20041;-91
2021/09/27 04:02:44;;;;;;;6.13;4.47;;;16.10;90.70;;;;;;2067144;28;20034;-91
2021/09/27 04:04:01;;;;;;;6.05;4.55;;;16.10;90.70;;;;;;2065044;28;20042;-91
2021/09/27 04:05:17;;;;;;;6.10;4.55;;;16.10;90.70;;;;;;2068184;28;20023;-91
2021/09/27 04:06:57;;;;;;;8.30;4.88;;;16.10;90.70;;;;;;2068363;28;20039;-91
2021/09/27 04:08:08;;;;;;;6.00;4.50;;;16.10;90.70;;;;;;2074113;28;20108;-91
2021/09/27 04:09:21;;;;;;;5.80;4.40;;;16.10;90.60;;;;;;2065996;28;20081;-90
2021/09/27 04:10:42;;;;;;;7.38;5.00;;;16.20;90.70;;;;;;2067305;28;20042;-91
2021/09/27 04:12:15;;;;;;;6.82;5.07;;;16.20;90.70;;;;;;2060941;28;20133;-91
2021/09/27 04:13:34;;;;;;;6.40;4.68;;;16.20;90.70;;;;;;2068187;28;20042;-91
2021/09/27 04:15:06;;;;;;;6.78;4.70;;;16.20;90.70;;;;;;2067928;28;20400;-90
2021/09/27 04:16:19;;;;;;;6.93;4.97;;;16.20;90.70;;;;;;2074122;28;20044;-91
2021/09/27 04:17:22;;;;;;;6.40;4.57;;;16.30;90.60;;;;;;2072300;28;20030;-91
2021/09/27 04:18:54;;;;;;;7.05;5.18;;;16.30;90.60;;;;;;2073462;28;20405;-91
2021/09/27 04:20:01;;;;;;;6.32;4.65;;;16.30;90.60;;;;;;2058691;28;20461;-91
2021/09/27 04:21:34;;;;;;;6.43;4.88;;;16.40;90.70;;;;;;2057468;28;20587;-91
2021/09/27 04:22:41;;;;;;;6.20;4.65;;;16.40;90.70;;;;;;2068883;28;20443;-91
2021/09/27 04:24:01;;;;;;;8.25;4.90;;;16.40;90.70;;;;;;2072037;28;20029;-91
2021/09/27 04:25:15;;;;;;;7.50;5.50;;;16.40;90.60;;;;;;2063671;28;20049;-91
2021/09/27 04:26:48;;;;;;;6.50;4.63;;;16.40;90.60;;;;;;2065705;28;20041;-92
2021/09/27 04:28:01;;;;;;;7.18;4.88;;;16.40;90.60;;;;;;2059380;28;20437;-92
2021/09/27 04:29:15;;;;;;;6.72;4.90;;;16.40;90.60;;;;;;2058286;28;20094;-90
2021/09/27 04:30:34;;;;;;;6.45;4.88;;;16.50;90.60;;;;;;2058304;28;20038;-91
2021/09/27 04:32:16;;;;;;;6.15;4.72;;;16.50;90.70;;;;;;2053765;28;20282;-90
2021/09/27 04:33:22;;;;;;;7.15;4.88;;;16.50;90.60;;;;;;2055744;28;20137;-89
2021/09/27 04:34:43;;;;;;;6.45;5.00;;;16.50;90.60;;;;;;2058978;28;20042;-90
2021/09/27 04:35:58;;;;;;;6.88;4.78;;;16.50;90.60;;;;;;2058358;28;20046;-90
2021/09/27 04:37:00;;;;;;;8.52;5.13;;;16.50;90.60;;;;;;2055353;28;20138;-88
2021/09/27 04:38:04;;;;;;;8.00;5.15;;;16.60;90.70;;;;;;2052719;28;20130;-89
2021/09/27 04:39:11;;;;;;;7.38;5.13;;;16.60;90.70;;;;;;2050559;28;20496;-90
2021/09/27 04:40:14;;;;;;;8.70;5.50;;;16.60;90.70;;;;;;2055034;28;20031;-89
2021/09/27 04:41:59;;;;;;;7.07;5.32;;;16.60;90.70;;;;;;2049558;28;20102;-89
2021/09/27 04:43:22;;;;;;;5.95;4.95;;;16.60;90.70;;;;;;2030857;29;20482;-89
2021/09/27 04:44:32;;;;;;;6.68;5.15;;;16.60;90.60;;;;;;2033622;29;20040;-91
2021/09/27 04:45:58;;;;;;;6.38;4.97;;;16.60;90.70;;;;;;2059083;28;20089;-89
2021/09/27 04:47:02;;;;;;;6.70;5.20;;;16.70;90.70;;;;;;2057527;28;20074;-89
2021/09/27 04:48:33;;;;;;;6.97;5.32;;;16.60;90.70;;;;;;2058860;28;20151;-89
2021/09/27 04:49:52;;;;;;;7.13;4.90;;;16.60;90.70;;;;;;2065201;28;20054;-90
2021/09/27 04:51:12;;;;;;;6.53;4.85;;;16.70;90.70;;;;;;2066886;28;20022;-89
2021/09/27 04:52:20;;;;;;;6.70;4.97;;;16.70;90.70;;;;;;2066078;28;20045;-90
2021/09/27 04:53:41;;;;;;;6.50;4.72;;;16.70;90.70;;;;;;2057855;28;20030;-89
2021/09/27 04:55:12;;;;;;;6.85;4.85;;;16.70;90.70;;;;;;2060163;28;20541;-91
2021/09/27 04:56:29;;;;;;;6.78;5.00;;;16.70;90.70;;;;;;2059265;28;20082;-90
2021/09/27 04:57:48;;;;;;;7.32;4.88;;;16.70;90.70;;;;;;2057050;28;20046;-90
2021/09/27 04:59:07;;;;;;;6.82;4.82;;;16.70;90.70;;;;;;2056534;28;20031;-92
2021/09/27 05:00:16;;;;;;;7.28;4.90;;;16.70;90.70;;;;;;2056158;28;20041;-92
2021/09/27 05:01:22;;;;;;;6.70;4.88;;;16.70;90.70;;;;;;2051115;28;20357;-92
2021/09/27 05:03:01;;;;;;;7.72;5.10;;;16.80;90.70;;;;;;2058718;28;20058;-92
2021/09/27 05:04:25;;;;;;;6.88;5.13;;;16.80;90.70;;;;;;2026399;29;20423;-91
2021/09/27 05:05:29;;;;;;;7.13;5.03;;;16.80;90.70;;;;;;2064357;28;20061;-90
2021/09/27 05:06:44;;;;;;;6.70;5.22;;;16.70;90.70;;;;;;2057273;28;20090;-92
2021/09/27 05:08:22;;;;;;;6.57;5.03;;;16.80;90.70;;;;;;2057967;28;20034;-92
2021/09/27 05:09:59;;;;;;;6.57;5.22;;;16.80;90.70;;;;;;2060113;28;20501;-92
2021/09/27 05:11:18;;;;;;;6.60;5.10;;;16.80;90.70;;;;;;2062771;28;20106;-93
2021/09/27 05:12:45;;;;;;;7.45;5.10;;;16.80;90.70;;;;;;2058145;28;20425;-92
2021/09/27 05:14:09;;;;;;;7.72;4.95;;;16.80;90.70;;;;;;2060115;28;20035;-95
2021/09/27 05:15:31;;;;;;;7.25;5.20;;;16.70;90.70;;;;;;2053558;28;20037;-93
2021/09/27 05:16:34;;;;;;;6.97;5.03;;;16.80;90.70;;;;;;2057320;28;20034;-92
2021/09/27 05:18:19;;;;;;;5.85;4.97;;;16.70;90.70;;;;;;2060522;28;20062;-92
2021/09/27 05:19:52;;;;;;;7.18;4.93;;;16.70;90.70;;;;;;2041842;28;20047;-93
2021/09/27 05:21:28;;;;;;;7.20;5.35;;;16.70;90.80;;;;;;2033906;29;20523;-93
2021/09/27 05:23:02;;;;;;;8.38;5.50;;;16.70;90.80;;;;;;2047032;29;20062;-92
2021/09/27 05:24:34;;;;;;;7.13;5.55;;;16.70;90.80;;;;;;2046152;28;20050;-93
2021/09/27 05:25:38;;;;;;;6.85;5.07;;;16.60;90.80;;;;;;2057853;28;20117;-93
2021/09/27 05:26:50;;;;;;;6.75;4.93;;;16.60;90.90;;;;;;2057830;28;20054;-93
2021/09/27 05:28:02;;;;;;;6.68;5.07;;;16.60;90.90;;;;;;2062221;28;20477;-93
2021/09/27 05:29:05;;;;;;;6.75;5.55;;;16.60;90.90;;;;;;2049740;29;20111;-93
2021/09/27 05:30:27;;;;;;;7.25;5.13;;;16.60;91.00;;;;;;2050051;28;20039;-93
2021/09/27 05:31:34;;;;;;;7.45;5.50;;;16.60;91.00;;;;;;2057624;28;20541;-93
2021/09/27 05:32:57;;;;;;;8.07;5.43;;;16.60;91.00;;;;;;2049760;29;20547;-93
2021/09/27 05:34:10;;;;;;;8.25;5.78;;;16.60;91.00;;;;;;2052546;28;20042;-92
2021/09/27 05:35:20;;;;;;;6.55;5.20;;;16.50;91.00;;;;;;2051059;28;20035;-93
2021/09/27 05:36:47;;;;;;;8.18;5.47;;;16.60;91.10;;;;;;2058268;28;20074;-93
2021/09/27 05:38:06;;;;;;;7.07;5.32;;;16.60;91.10;;;;;;2061255;28;20034;-93
2021/09/27 05:39:12;;;;;;;7.30;5.90;;;16.50;91.00;;;;;;2057695;28;20074;-93
2021/09/27 05:40:24;;;;;;;7.53;5.63;;;16.50;91.10;;;;;;2057941;28;20448;-93
2021/09/27 05:41:43;;;;;;;7.72;6.00;;;16.60;91.10;;;;;;2068435;28;20054;-86
2021/09/27 05:42:59;;;;;;;7.38;5.60;;;16.50;91.10;;;;;;2073634;28;20038;-92
2021/09/27 05:44:33;;;;;;;7.13;5.53;;;16.50;91.10;;;;;;2058105;28;20441;-94
2021/09/27 05:46:15;;;;;;;8.38;5.55;;;16.50;91.10;;;;;;2062601;28;20081;-94
2021/09/27 05:47:18;;;;;;;7.68;5.72;;;16.50;91.10;;;;;;2056179;28;20039;-95
2021/09/27 05:48:43;;;;;;;7.65;5.72;;;16.50;91.10;;;;;;2056834;28;20035;-96
2021/09/27 05:50:02;;;;;;;7.22;5.50;;;16.50;91.10;;;;;;2051336;28;20038;-94
2021/09/27 05:51:11;;;;;;;7.22;5.40;;;16.50;91.10;;;;;;2043585;28;20122;-95
2021/09/27 05:52:39;;;;;;;6.75;5.53;;;16.50;91.20;;;;;;2053142;28;20529;-95
2021/09/27 05:54:02;;;;;;;7.25;5.50;;;16.40;91.10;;;;;;2054670;28;20047;-95
2021/09/27 05:55:31;;;;;;;8.35;5.38;;;16.50;91.40;;;;;;2045540;28;20498;-95
2021/09/27 05:56:52;;;;;;;8.25;5.85;;;16.40;91.10;;;;;;2046509;28;20042;-96
2021/09/27 05:58:01;;;;;;;6.90;5.65;;;16.40;91.10;;;;;;2056297;28;20089;-95
2021/09/27 05:59:15;;;;;;;8.25;6.22;;;16.50;91.20;;;;;;2049552;28;20035;-94
2021/09/27 06:00:42;;;;;;;9.82;6.30;;;16.50;91.20;;;;;;2046855;29;20043;-95
2021/09/27 06:01:58;;;;;;;9.73;6.05;;;16.40;91.20;;;;;;2054474;28;20417;-94
2021/09/27 06:03:12;;;;;;;7.88;6.28;;;16.40;91.40;;;;;;2053188;28;20035;-94
2021/09/27 06:04:54;;;;;;;8.43;6.10;;;16.40;91.20;;;;;;2047770;28;20043;-95
2021/09/27 06:06:12;;;;;;;9.40;6.25;;;16.40;91.20;;;;;;2049758;28;20074;-93
2021/09/27 06:07:21;;;;;;;6.72;5.40;;;16.40;91.20;;;;;;2057267;28;20521;-94
2021/09/27 06:08:50;;;;;;;8.52;6.38;;;16.40;91.20;;;;;;2049901;28;20047;-94
2021/09/27 06:10:07;;;;;;;7.85;6.07;;;16.40;91.10;;;;;;2025580;29;20048;-94
2021/09/27 06:11:51;;;;;;;7.78;6.20;;;16.40;91.10;;;;;;2065764;28;20041;-94
2021/09/27 06:13:12;;;;;;;7.30;5.25;;;16.40;91.10;;;;;;2039176;29;20399;-94
2021/09/27 06:14:16;;;;;;;8.63;5.90;;;16.40;91.10;;;;;;2040895;29;20418;-95
2021/09/27 06:15:17;;;;;;;8.38;5.93;;;16.50;91.20;;;;;;2050483;28;20071;-95
2021/09/27 06:16:39;;;;;;;7.60;6.15;;;16.40;91.10;;;;;;2062372;28;20038;-94
2021/09/27 06:17:52;;;;;;;7.90;5.72;;;16.40;91.20;;;;;;2064849;28;20121;-94
2021/09/27 06:19:23;;;;;;;7.72;5.72;;;16.50;91.20;;;;;;2055124;28;20042;-95
2021/09/27 06:20:33;;;;;;;8.20;5.63;;;16.50;91.10;;;;;;2056817;28;20042;-94
2021/09/27 06:21:58;;;;;;;8.85;5.95;;;16.50;91.20;;;;;;2058507;28;20413;-94
2021/09/27 06:23:19;;;;;;;7.20;5.72;;;16.50;91.20;;;;;;2063755;28;20023;-94
2021/09/27 06:24:40;;;;;;;7.07;5.45;;;16.50;91.10;;;;;;2067165;28;20033;-91
2021/09/27 06:26:08;;;;;;;7.95;5.65;;;16.50;91.10;;;;;;2073145;28;20415;-95
2021/09/27 06:27:18;;;;;;;6.70;5.25;;;16.50;91.10;;;;;;2060297;28;20045;-94
2021/09/27 06:28:31;;;;;;;8.25;5.43;;;16.50;91.10;;;;;;2056104;28;20085;-94
2021/09/27 06:29:36;;;;;;;9.00;6.10;;;16.50;91.10;;;;;;2064036;28;20452;-95
2021/09/27 06:30:49;;;;;;;6.97;5.80;;;16.50;91.10;;;;;;2068542;28;20476;-95
2021/09/27 06:32:13;;;;;;;7.78;5.85;;;16.50;91.10;;;;;;2064385;28;20042;-95